KLBL/LBL METAR and TAF weather

Enter ICAO airport designator
Station Type Date Time Source
KLBL METAR 2021/07/30 21:56 UTC NOAA

KLBL 302156Z AUTO 20012KT 10SM CLR 37/15 A3008 RMK AO2 SLP147 T03670150 PNO $


Station Type Date Time Source
KLBL Decoded METAR 2021/07/30 21:56 UTC NOAA

Liberal, Liberal Municipal Airport, KS, United States (KLBL) 37-03N 100-58W
Jul 30, 2021 - 05:56 PM EDT / 2021.07.30 2156 UTC
Wind: from the SSW (200 degrees) at 14 MPH (12 KT):0
Visibility: 10 mile(s):0
Sky conditions: clear
Temperature: 98.1 F (36.7 C)
Heat index: 97.7 F (36.5 C):1
Dew Point: 59.0 F (15.0 C)
Relative Humidity: 27%
Pressure (altimeter): 30.08 in. Hg (1018 hPa)
ob: KLBL 302156Z AUTO 20012KT 10SM CLR 37/15 A3008 RMK AO2 SLP147 T03670150 PNO
cycle: 22

Station Type Date Time Source
KLBL TAF 2021/07/30 18:21 UTC NOAA

TAF KLBL 301720Z 3018/3118 18015G22KT P6SM FEW250
FM310200 19012KT P6SM FEW250
FM311300 24010KT P6SM FEW250
FM311600 30014KT P6SM FEW250

Example: see airport list